createdAt,value
2023-05-21T00:01:05.804Z,16.38
2023-05-21T00:03:33.968Z,16.55
2023-05-21T00:06:03.560Z,16.55
2023-05-21T00:08:34.209Z,16.85
2023-05-21T00:11:01.985Z,17.15
2023-05-21T00:13:29.719Z,16.75
2023-05-21T00:15:57.525Z,17.02
2023-05-21T00:18:25.423Z,16.73
2023-05-21T00:20:53.444Z,16.58
2023-05-21T00:23:21.440Z,16.45
2023-05-21T00:25:50.635Z,14.48
2023-05-21T00:30:47.301Z,15.98
2023-05-21T00:33:15.081Z,16.58
2023-05-21T00:35:42.914Z,16.10
2023-05-21T00:38:10.702Z,16.20
2023-05-21T00:40:41.234Z,16.48
2023-05-21T00:43:10.723Z,16.48
2023-05-21T00:45:38.749Z,16.80
2023-05-21T00:48:08.428Z,16.33
2023-05-21T00:50:36.475Z,17.27
2023-05-21T00:53:04.857Z,17.15
2023-05-21T00:55:32.783Z,16.58
2023-05-21T00:58:00.650Z,16.63
2023-05-21T01:00:29.885Z,15.95
2023-05-21T01:05:25.565Z,16.15
2023-05-21T01:07:53.808Z,16.02
2023-05-21T01:10:21.648Z,16.67
2023-05-21T01:12:49.909Z,16.60
2023-05-21T01:15:17.997Z,16.20
2023-05-21T01:17:48.786Z,16.48
2023-05-21T01:20:19.116Z,16.75
2023-05-21T01:22:55.100Z,15.43
2023-05-21T01:25:23.118Z,15.90
2023-05-21T01:27:51.195Z,16.00
2023-05-21T01:30:19.803Z,15.40
2023-05-21T01:32:50.754Z,16.10
2023-05-21T01:35:22.315Z,15.60
2023-05-21T01:37:56.551Z,16.15
2023-05-21T01:40:27.800Z,16.25
2023-05-21T01:42:55.786Z,17.00
2023-05-21T01:45:25.336Z,15.73
2023-05-21T01:47:55.247Z,16.40
2023-05-21T01:50:24.385Z,15.75
2023-05-21T01:55:24.838Z,16.40
2023-05-21T01:57:53.797Z,15.88
2023-05-21T02:00:22.031Z,16.25
2023-05-21T02:02:50.330Z,16.40
2023-05-21T02:05:18.473Z,16.55
2023-05-21T02:07:47.352Z,16.40
2023-05-21T02:10:15.822Z,16.98
2023-05-21T02:12:45.358Z,16.10
2023-05-21T02:15:14.443Z,16.52
2023-05-21T02:17:42.498Z,16.20
2023-05-21T02:20:12.201Z,16.65
2023-05-21T02:22:40.390Z,16.48
2023-05-21T02:25:09.321Z,16.77
2023-05-21T02:27:37.738Z,16.48
2023-05-21T02:30:08.986Z,15.60
2023-05-21T02:32:37.022Z,16.67
2023-05-21T02:35:05.614Z,16.38
2023-05-21T02:37:35.087Z,16.42
2023-05-21T02:40:04.250Z,16.08
2023-05-21T02:44:59.713Z,15.95
2023-05-21T02:47:28.893Z,16.77
2023-05-21T02:52:24.219Z,16.65
2023-05-21T02:54:52.858Z,16.50
2023-05-21T02:57:20.725Z,16.52
2023-05-21T02:59:48.504Z,16.30
2023-05-21T03:02:16.403Z,16.50
2023-05-21T03:04:46.979Z,16.38
2023-05-21T03:07:15.195Z,16.05
2023-05-21T03:09:43.047Z,16.50
2023-05-21T03:12:11.513Z,17.10
2023-05-21T03:14:39.589Z,16.90
2023-05-21T03:17:07.837Z,17.73
2023-05-21T03:19:36.384Z,16.08
2023-05-21T03:22:05.748Z,16.45
2023-05-21T03:24:33.632Z,16.38
2023-05-21T03:27:02.136Z,16.00
2023-05-21T03:29:30.156Z,16.10
2023-05-21T03:31:58.143Z,17.23
2023-05-21T03:34:25.992Z,15.85
2023-05-21T03:36:53.748Z,16.08
2023-05-21T03:39:22.923Z,17.38
2023-05-21T03:44:18.322Z,17.15
2023-05-21T03:46:46.160Z,16.73
2023-05-21T03:49:14.983Z,16.25
2023-05-21T03:51:42.695Z,16.17
2023-05-21T03:54:10.545Z,16.60
2023-05-21T03:56:39.655Z,15.63
2023-05-21T03:59:07.418Z,16.75
2023-05-21T04:01:35.214Z,16.20
2023-05-21T04:04:03.209Z,17.10
2023-05-21T04:06:31.230Z,17.38
2023-05-21T04:08:58.958Z,17.25
2023-05-21T04:11:27.254Z,17.38
2023-05-21T04:13:56.380Z,16.30
2023-05-21T04:18:55.521Z,17.05
2023-05-21T04:21:23.430Z,16.85
2023-05-21T04:23:53.903Z,16.92
2023-05-21T04:26:22.819Z,16.73
2023-05-21T04:28:50.663Z,17.33
2023-05-21T04:31:19.837Z,17.50
2023-05-21T04:36:17.464Z,17.75
2023-05-21T04:38:45.262Z,17.30
2023-05-21T04:41:14.856Z,18.70
2023-05-21T04:43:44.049Z,18.20
2023-05-21T04:48:41.020Z,16.98
2023-05-21T04:51:08.856Z,17.80
2023-05-21T04:53:36.647Z,18.13
2023-05-21T04:56:04.421Z,18.10
2023-05-21T04:58:32.903Z,18.42
2023-05-21T05:01:03.068Z,17.15
2023-05-21T05:03:31.335Z,17.77
2023-05-21T05:06:04.308Z,17.63
2023-05-21T05:08:32.048Z,17.10
2023-05-21T05:10:59.823Z,18.48
2023-05-21T05:13:27.587Z,17.05
2023-05-21T05:15:55.416Z,17.40
2023-05-21T05:18:23.162Z,17.55
2023-05-21T05:20:51.090Z,17.48
2023-05-21T05:23:20.429Z,18.40
2023-05-21T05:25:48.368Z,17.70
2023-05-21T05:28:16.104Z,17.40
2023-05-21T05:30:44.066Z,18.48
2023-05-21T05:33:12.502Z,17.48
2023-05-21T05:35:40.308Z,18.63
2023-05-21T05:38:09.048Z,18.52
2023-05-21T05:40:38.217Z,18.20
2023-05-21T05:45:33.605Z,18.90
2023-05-21T05:48:09.160Z,18.90
2023-05-21T05:50:37.262Z,19.23
2023-05-21T05:53:05.056Z,19.25
2023-05-21T05:55:32.891Z,17.80
2023-05-21T05:58:02.014Z,18.23
2023-05-21T06:02:59.680Z,18.35
2023-05-21T06:05:28.065Z,17.50
2023-05-21T06:07:56.120Z,19.23
2023-05-21T06:10:24.144Z,18.02
2023-05-21T06:12:56.178Z,19.45
2023-05-21T06:15:25.565Z,18.42
2023-05-21T06:17:53.685Z,18.75
2023-05-21T06:20:21.529Z,17.87
2023-05-21T06:22:49.334Z,18.27
2023-05-21T06:25:18.296Z,17.75
2023-05-21T06:27:46.136Z,18.65
2023-05-21T06:30:14.081Z,18.13
2023-05-21T06:32:44.348Z,18.20
2023-05-21T06:35:12.261Z,18.70
2023-05-21T06:37:40.085Z,18.55
2023-05-21T06:40:09.351Z,17.92
2023-05-21T06:42:37.272Z,18.50
2023-05-21T06:45:05.751Z,18.40
2023-05-21T06:47:33.571Z,18.85
2023-05-21T06:50:02.730Z,17.67
2023-05-21T06:52:31.766Z,18.40
2023-05-21T06:57:27.198Z,17.63
2023-05-21T06:59:54.946Z,19.42
2023-05-21T07:02:22.873Z,17.77
2023-05-21T07:04:51.257Z,17.88
2023-05-21T07:07:20.552Z,18.58
2023-05-21T07:09:48.406Z,18.05
2023-05-21T07:12:16.230Z,19.00
2023-05-21T07:14:44.004Z,19.60
2023-05-21T07:17:11.938Z,19.45
2023-05-21T07:19:39.759Z,19.20
2023-05-21T07:22:07.682Z,19.25
2023-05-21T07:24:36.856Z,19.27
2023-05-21T07:27:14.332Z,19.77
2023-05-21T07:29:52.292Z,19.98
2023-05-21T07:32:20.181Z,19.50
2023-05-21T07:34:48.162Z,19.38
2023-05-21T07:37:16.049Z,19.52
2023-05-21T07:39:45.213Z,20.15
2023-05-21T07:42:13.020Z,19.60
2023-05-21T07:44:40.859Z,20.63
2023-05-21T07:47:08.664Z,20.25
2023-05-21T07:49:36.536Z,19.95
2023-05-21T07:52:04.505Z,20.30
2023-05-21T07:54:32.263Z,20.58
2023-05-21T07:57:02.936Z,21.60
2023-05-21T07:59:30.895Z,20.30
2023-05-21T08:01:59.071Z,20.90
2023-05-21T08:04:27.354Z,21.95
2023-05-21T08:06:55.227Z,21.15
2023-05-21T08:09:23.155Z,20.38
2023-05-21T08:11:51.041Z,19.65
2023-05-21T08:14:20.265Z,20.50
2023-05-21T08:16:48.401Z,19.65
2023-05-21T08:19:16.329Z,19.58
2023-05-21T08:21:44.226Z,20.33
2023-05-21T08:24:12.014Z,19.77
2023-05-21T08:26:39.835Z,20.45
2023-05-21T08:29:07.662Z,19.63
2023-05-21T08:31:36.844Z,21.10
2023-05-21T08:34:04.624Z,20.27
2023-05-21T08:36:32.962Z,20.97
2023-05-21T08:39:01.197Z,20.20
2023-05-21T08:41:29.913Z,19.98
2023-05-21T08:46:26.933Z,21.08
2023-05-21T08:48:56.544Z,20.92
2023-05-21T08:51:24.375Z,19.50
2023-05-21T08:53:52.322Z,21.07
2023-05-21T08:56:20.176Z,18.50
2023-05-21T08:58:48.345Z,21.27
2023-05-21T09:01:18.713Z,21.95
2023-05-21T09:03:47.181Z,20.77
2023-05-21T09:06:16.544Z,20.98
2023-05-21T09:08:46.034Z,20.42
2023-05-21T09:11:14.971Z,21.40
2023-05-21T09:13:43.142Z,20.70
2023-05-21T09:16:11.098Z,20.98
2023-05-21T09:18:38.934Z,21.50
2023-05-21T09:21:26.182Z,21.53
2023-05-21T09:23:56.210Z,20.60
2023-05-21T09:26:24.099Z,20.90
2023-05-21T09:28:52.352Z,21.30
2023-05-21T09:31:20.232Z,20.17
2023-05-21T09:33:48.779Z,21.23
2023-05-21T09:38:46.356Z,22.40
2023-05-21T09:41:15.902Z,21.35
2023-05-21T09:43:45.885Z,22.42
2023-05-21T09:46:13.840Z,22.45
2023-05-21T09:48:42.822Z,21.50
2023-05-21T09:51:11.969Z,21.42
2023-05-21T09:53:49.879Z,22.58
2023-05-21T09:56:20.250Z,21.10
2023-05-21T09:58:48.005Z,22.63
2023-05-21T10:01:15.902Z,21.63
2023-05-21T10:03:47.262Z,20.77
2023-05-21T10:06:16.665Z,21.15
2023-05-21T10:08:46.563Z,20.88
2023-05-21T10:11:14.936Z,21.50
2023-05-21T10:13:46.431Z,20.75
2023-05-21T10:16:14.655Z,21.15
2023-05-21T10:18:43.845Z,21.80
2023-05-21T10:21:11.759Z,22.23
2023-05-21T10:23:40.564Z,20.27
2023-05-21T10:26:09.825Z,21.88
2023-05-21T10:28:37.674Z,20.35
2023-05-21T10:31:05.554Z,21.13
2023-05-21T10:33:34.205Z,20.73
2023-05-21T10:36:02.188Z,20.60
2023-05-21T10:38:30.525Z,20.40
2023-05-21T10:40:58.740Z,21.27
2023-05-21T10:43:36.102Z,21.63
2023-05-21T10:46:22.554Z,20.92
2023-05-21T10:49:22.688Z,21.65
2023-05-21T10:51:55.887Z,21.10
2023-05-21T10:55:01.941Z,21.27
2023-05-21T10:57:47.730Z,19.98
2023-05-21T11:00:18.081Z,21.17
2023-05-21T11:02:46.717Z,22.25
2023-05-21T11:07:56.370Z,22.60
2023-05-21T11:10:38.574Z,22.45
2023-05-21T11:13:08.851Z,21.70
2023-05-21T11:16:08.484Z,21.52
2023-05-21T11:19:01.622Z,22.33
2023-05-21T11:21:35.606Z,21.42
2023-05-21T11:24:06.429Z,22.42
2023-05-21T11:27:02.285Z,22.33
2023-05-21T11:29:45.917Z,23.08
2023-05-21T11:32:17.413Z,22.27
2023-05-21T11:34:47.024Z,22.90
2023-05-21T11:37:34.832Z,21.88
2023-05-21T11:40:23.890Z,21.80
2023-05-21T11:42:53.397Z,22.20
2023-05-21T11:45:22.036Z,22.25
2023-05-21T11:50:20.774Z,22.67
2023-05-21T11:52:50.142Z,21.67
2023-05-21T11:55:22.780Z,21.77
2023-05-21T11:57:54.334Z,22.13
2023-05-21T12:00:23.116Z,22.33
2023-05-21T12:02:55.782Z,22.00
2023-05-21T12:05:25.062Z,22.02
2023-05-21T12:07:54.601Z,21.50
2023-05-21T12:10:23.209Z,21.70
2023-05-21T12:15:26.532Z,21.48
2023-05-21T12:17:56.218Z,21.10
2023-05-21T12:20:24.396Z,21.10
2023-05-21T12:22:52.226Z,19.75
2023-05-21T12:25:21.259Z,22.88
2023-05-21T12:27:50.936Z,20.92
2023-05-21T12:30:18.975Z,20.80
2023-05-21T12:32:46.934Z,20.70
2023-05-21T12:35:25.332Z,21.23
2023-05-21T12:37:53.283Z,21.05
2023-05-21T12:40:22.236Z,21.75
2023-05-21T12:42:50.823Z,20.17
2023-05-21T12:45:19.041Z,23.27
2023-05-21T12:47:50.167Z,20.33
2023-05-21T12:50:21.836Z,22.40
2023-05-21T12:52:51.125Z,21.15
2023-05-21T12:55:18.948Z,21.20
2023-05-21T12:57:46.998Z,20.77
2023-05-21T13:00:15.172Z,19.70
2023-05-21T13:02:44.911Z,22.08
2023-05-21T13:05:17.646Z,21.73
2023-05-21T13:07:47.518Z,21.92
2023-05-21T13:10:20.125Z,21.85
2023-05-21T13:12:48.038Z,21.92
2023-05-21T13:15:16.159Z,21.98
2023-05-21T13:17:43.941Z,21.48
2023-05-21T13:20:13.149Z,20.75
2023-05-21T13:22:43.367Z,21.30
2023-05-21T13:25:11.714Z,21.95
2023-05-21T13:27:42.143Z,22.02
2023-05-21T13:30:11.639Z,18.77
2023-05-21T13:32:40.287Z,21.25
2023-05-21T13:35:09.996Z,23.98
2023-05-21T13:37:38.016Z,20.70
2023-05-21T13:40:06.893Z,20.38
2023-05-21T13:42:35.240Z,21.02
2023-05-21T13:45:04.787Z,22.08
2023-05-21T13:47:33.483Z,20.77
2023-05-21T13:50:01.563Z,21.80
2023-05-21T13:52:29.303Z,21.67
2023-05-21T13:54:57.224Z,22.10
2023-05-21T13:57:26.808Z,20.98
2023-05-21T13:59:54.683Z,21.90
2023-05-21T14:02:24.117Z,22.27
2023-05-21T14:04:51.978Z,22.50
2023-05-21T14:07:19.835Z,23.07
2023-05-21T14:09:48.275Z,21.85
2023-05-21T14:12:16.905Z,22.15
2023-05-21T14:14:44.785Z,21.52
2023-05-21T14:17:12.581Z,21.60
2023-05-21T14:19:41.825Z,22.63
2023-05-21T14:22:09.762Z,22.45
2023-05-21T14:24:39.529Z,23.52
2023-05-21T14:27:07.414Z,22.73
2023-05-21T14:29:35.206Z,21.48
2023-05-21T14:32:03.038Z,22.50
2023-05-21T14:34:30.900Z,21.77
2023-05-21T14:37:00.104Z,22.58
2023-05-21T14:39:28.121Z,22.23
2023-05-21T14:41:55.956Z,22.10
2023-05-21T14:44:23.838Z,23.00
2023-05-21T14:46:51.680Z,21.50
2023-05-21T14:49:19.495Z,21.95
2023-05-21T14:51:47.688Z,23.23
2023-05-21T14:54:17.090Z,21.52
2023-05-21T14:56:44.968Z,21.70
2023-05-21T14:59:14.327Z,22.42
2023-05-21T15:01:42.449Z,21.48
2023-05-21T15:04:10.394Z,23.27
2023-05-21T15:06:38.273Z,21.90
2023-05-21T15:09:06.051Z,20.73
2023-05-21T15:11:36.032Z,22.20
2023-05-21T15:14:03.860Z,21.35
2023-05-21T15:16:31.706Z,22.75
2023-05-21T15:18:59.524Z,22.45
2023-05-21T15:21:28.187Z,23.20
2023-05-21T15:23:56.145Z,22.10
2023-05-21T15:26:25.375Z,20.95
2023-05-21T15:28:54.593Z,23.17
2023-05-21T15:31:22.436Z,21.45
2023-05-21T15:33:50.299Z,20.55
2023-05-21T15:36:18.097Z,21.70
2023-05-21T15:38:46.269Z,21.80
2023-05-21T15:41:14.092Z,21.85
2023-05-21T15:43:42.432Z,22.20
2023-05-21T15:46:12.692Z,22.42
2023-05-21T15:48:40.569Z,21.83
2023-05-21T15:51:08.402Z,20.57
2023-05-21T15:53:36.401Z,21.65
2023-05-21T15:56:04.424Z,22.10
2023-05-21T15:58:32.400Z,22.67
2023-05-21T16:01:00.256Z,21.98
2023-05-21T16:03:29.527Z,20.98
2023-05-21T16:05:57.447Z,21.90
2023-05-21T16:08:25.508Z,21.50
2023-05-21T16:10:53.491Z,21.42
2023-05-21T16:13:21.247Z,20.90
2023-05-21T16:15:49.094Z,21.33
2023-05-21T16:18:17.004Z,20.47
2023-05-21T16:20:46.270Z,22.67
2023-05-21T16:23:14.084Z,22.13
2023-05-21T16:25:42.070Z,21.10
2023-05-21T16:28:09.841Z,21.58
2023-05-21T16:30:37.718Z,21.33
2023-05-21T16:33:05.932Z,21.10
2023-05-21T16:35:33.809Z,21.35
2023-05-21T16:38:03.032Z,21.17
2023-05-21T16:40:31.474Z,21.35
2023-05-21T16:43:02.032Z,21.17
2023-05-21T16:45:36.178Z,21.70
2023-05-21T16:48:04.291Z,19.80
2023-05-21T16:50:32.191Z,21.40
2023-05-21T16:53:02.334Z,22.40
2023-05-21T16:55:31.927Z,20.88
2023-05-21T16:57:59.780Z,21.45
2023-05-21T17:00:27.701Z,21.07
2023-05-21T17:02:55.775Z,21.02
2023-05-21T17:07:53.751Z,20.88
2023-05-21T17:10:21.604Z,21.83
2023-05-21T17:12:50.982Z,21.20
2023-05-21T17:15:18.769Z,21.77
2023-05-21T17:17:46.677Z,20.70
2023-05-21T17:20:14.825Z,21.40
2023-05-21T17:22:42.640Z,21.75
2023-05-21T17:25:10.846Z,20.65
2023-05-21T17:27:38.648Z,21.33
2023-05-21T17:30:10.189Z,20.83
2023-05-21T17:32:38.010Z,21.17
2023-05-21T17:35:06.471Z,22.03
2023-05-21T17:37:34.265Z,22.80
2023-05-21T17:40:02.050Z,21.17
2023-05-21T17:42:29.945Z,22.40
2023-05-21T17:44:57.736Z,23.10
2023-05-21T17:47:26.886Z,21.30
2023-05-21T17:49:54.721Z,21.42
2023-05-21T17:52:22.573Z,22.20
2023-05-21T17:54:50.515Z,21.97
2023-05-21T17:57:19.949Z,22.13
2023-05-21T17:59:47.802Z,22.00
2023-05-21T18:02:15.626Z,22.57
2023-05-21T18:04:44.764Z,21.10
2023-05-21T18:07:12.514Z,21.83
2023-05-21T18:09:40.295Z,22.33
2023-05-21T18:12:08.752Z,22.38
2023-05-21T18:14:36.606Z,22.75
2023-05-21T18:17:04.473Z,22.70
2023-05-21T18:19:32.821Z,22.37
2023-05-21T18:22:03.098Z,22.35
2023-05-21T18:24:30.935Z,22.73
2023-05-21T18:26:58.799Z,22.30
2023-05-21T18:29:26.671Z,22.10
2023-05-21T18:31:54.745Z,21.33
2023-05-21T18:34:22.713Z,21.20
2023-05-21T18:36:50.650Z,21.60
2023-05-21T18:39:24.415Z,22.13
2023-05-21T18:42:01.520Z,21.17
2023-05-21T18:44:33.353Z,20.92
2023-05-21T18:47:01.773Z,21.33
2023-05-21T18:49:33.833Z,21.95
2023-05-21T18:52:01.676Z,21.45
2023-05-21T18:54:30.857Z,21.83
2023-05-21T18:57:00.449Z,21.98
2023-05-21T18:59:29.240Z,21.60
2023-05-21T19:01:57.209Z,20.88
2023-05-21T19:04:25.059Z,21.90
2023-05-21T19:06:52.842Z,21.53
2023-05-21T19:09:20.800Z,21.27
2023-05-21T19:11:50.430Z,22.40
2023-05-21T19:14:20.304Z,21.65
2023-05-21T19:16:48.134Z,21.15
2023-05-21T19:19:16.606Z,21.77
2023-05-21T19:21:44.596Z,21.67
2023-05-21T19:24:12.403Z,21.23
2023-05-21T19:26:40.234Z,21.02
2023-05-21T19:29:09.796Z,21.87
2023-05-21T19:31:39.078Z,21.13
2023-05-21T19:34:10.499Z,20.73
2023-05-21T19:36:52.013Z,21.15
2023-05-21T19:39:21.069Z,19.73
2023-05-21T19:41:48.834Z,20.85
2023-05-21T19:44:18.311Z,20.60
2023-05-21T19:46:46.074Z,20.50
2023-05-21T19:49:15.888Z,20.95
2023-05-21T19:51:43.806Z,20.92
2023-05-21T19:54:11.612Z,20.50
2023-05-21T19:56:39.525Z,20.45
2023-05-21T19:59:07.328Z,21.07
2023-05-21T20:01:39.517Z,20.15
2023-05-21T20:04:07.835Z,21.98
2023-05-21T20:06:35.803Z,20.65
2023-05-21T20:09:04.073Z,20.30
2023-05-21T20:11:31.845Z,20.50
2023-05-21T20:13:59.724Z,20.90
2023-05-21T20:16:27.581Z,21.37
2023-05-21T20:18:58.305Z,20.97
2023-05-21T20:21:26.216Z,21.15
2023-05-21T20:23:54.611Z,21.38
2023-05-21T20:26:23.186Z,21.00
2023-05-21T20:28:51.008Z,21.10
2023-05-21T20:31:19.098Z,19.92
2023-05-21T20:33:46.976Z,20.60
2023-05-21T20:36:17.753Z,20.48
2023-05-21T20:38:47.234Z,25.42
2023-05-21T20:41:15.231Z,24.77
2023-05-21T20:43:45.382Z,25.43
2023-05-21T20:46:13.564Z,24.52
2023-05-21T20:48:41.797Z,24.88
2023-05-21T20:51:09.608Z,24.80
2023-05-21T20:53:38.758Z,24.85
2023-05-21T20:56:08.300Z,23.75
2023-05-21T20:58:36.291Z,23.90
2023-05-21T21:01:04.104Z,23.25
2023-05-21T21:03:34.346Z,23.48
2023-05-21T21:06:03.068Z,23.15
2023-05-21T21:08:31.049Z,24.58
2023-05-21T21:11:00.255Z,23.90
2023-05-21T21:13:28.125Z,24.85
2023-05-21T21:15:56.007Z,25.00
2023-05-21T21:18:23.936Z,23.48
2023-05-21T21:20:51.799Z,24.88
2023-05-21T21:23:19.612Z,24.20
2023-05-21T21:25:47.464Z,24.67
2023-05-21T21:28:16.681Z,24.50
2023-05-21T21:30:45.032Z,24.70
2023-05-21T21:33:14.284Z,24.38
2023-05-21T21:35:42.440Z,24.50
2023-05-21T21:38:10.219Z,24.63
2023-05-21T21:40:38.318Z,23.27
2023-05-21T21:43:06.335Z,23.67
2023-05-21T21:45:35.543Z,22.33
2023-05-21T21:48:03.473Z,22.95
2023-05-21T21:50:31.342Z,22.65
2023-05-21T21:52:59.939Z,23.05
2023-05-21T21:55:27.823Z,23.30
2023-05-21T21:57:55.759Z,23.65
2023-05-21T22:00:26.674Z,23.27
2023-05-21T22:02:56.723Z,23.17
2023-05-21T22:05:24.590Z,23.58
2023-05-21T22:07:52.579Z,23.25
2023-05-21T22:10:21.283Z,23.38
2023-05-21T22:12:49.297Z,23.80
2023-05-21T22:15:23.874Z,24.50
2023-05-21T22:17:52.038Z,24.65
2023-05-21T22:20:22.049Z,23.27
2023-05-21T22:22:50.454Z,23.15
2023-05-21T22:25:18.340Z,23.10
2023-05-21T22:27:46.153Z,22.38
2023-05-21T22:30:14.266Z,21.15
2023-05-21T22:32:42.073Z,21.63
2023-05-21T22:35:10.611Z,20.90
2023-05-21T22:37:39.955Z,21.48
2023-05-21T22:40:09.187Z,21.27
2023-05-21T22:42:37.089Z,22.40
2023-05-21T22:45:05.717Z,21.27
2023-05-21T22:47:33.517Z,22.02
2023-05-21T22:50:04.394Z,21.67
2023-05-21T22:52:32.413Z,22.15
2023-05-21T22:55:01.831Z,22.67
2023-05-21T22:57:29.819Z,22.58
2023-05-21T22:59:57.642Z,23.65
2023-05-21T23:02:25.597Z,24.45
2023-05-21T23:04:53.424Z,23.63
2023-05-21T23:07:21.280Z,24.88
2023-05-21T23:09:51.661Z,25.05
2023-05-21T23:12:20.916Z,23.85
2023-05-21T23:14:48.645Z,24.92
2023-05-21T23:17:16.398Z,23.90
2023-05-21T23:19:44.163Z,24.20
2023-05-21T23:22:11.973Z,23.65
2023-05-21T23:24:39.735Z,23.58
2023-05-21T23:27:07.700Z,23.80
2023-05-21T23:29:36.882Z,22.90
2023-05-21T23:32:05.654Z,22.40
2023-05-21T23:34:33.487Z,23.20
2023-05-21T23:37:01.353Z,23.63
2023-05-21T23:39:29.523Z,23.23
2023-05-21T23:41:57.556Z,22.63
2023-05-21T23:44:25.371Z,22.70
2023-05-21T23:46:54.493Z,22.95
2023-05-21T23:49:22.235Z,22.05
2023-05-21T23:51:51.394Z,21.77
2023-05-21T23:54:19.191Z,22.83
2023-05-21T23:56:47.571Z,22.55
2023-05-21T23:59:17.700Z,22.77
